sensor_id;sensor_type;location;lat;lon;timestamp;P1;durP1;ratioP1;P2;durP2;ratioP2
28519;SDS011;15732;48.534;20.382;2023-04-01T00:00:54;6.15;;;2.88;;
28519;SDS011;15732;48.534;20.382;2023-04-01T00:03:22;9.65;;;4.03;;
28519;SDS011;15732;48.534;20.382;2023-04-01T00:05:51;6.78;;;3.10;;
28519;SDS011;15732;48.534;20.382;2023-04-01T00:08:19;4.55;;;2.35;;
28519;SDS011;15732;48.534;20.382;2023-04-01T00:10:46;6.95;;;3.17;;
28519;SDS011;15732;48.534;20.382;2023-04-01T00:13:14;5.25;;;2.42;;
28519;SDS011;15732;48.534;20.382;2023-04-01T00:15:42;5.43;;;2.90;;
28519;SDS011;15732;48.534;20.382;2023-04-01T00:18:13;5.07;;;2.50;;
28519;SDS011;15732;48.534;20.382;2023-04-01T00:20:44;7.43;;;2.83;;
28519;SDS011;15732;48.534;20.382;2023-04-01T00:23:16;14.00;;;2.28;;
28519;SDS011;15732;48.534;20.382;2023-04-01T00:25:47;6.07;;;2.03;;
28519;SDS011;15732;48.534;20.382;2023-04-01T00:28:17;3.70;;;1.38;;
28519;SDS011;15732;48.534;20.382;2023-04-01T00:30:46;4.35;;;2.15;;
28519;SDS011;15732;48.534;20.382;2023-04-01T00:33:17;13.32;;;3.03;;
28519;SDS011;15732;48.534;20.382;2023-04-01T00:35:49;8.80;;;1.90;;
28519;SDS011;15732;48.534;20.382;2023-04-01T00:38:16;7.18;;;2.88;;
28519;SDS011;15732;48.534;20.382;2023-04-01T00:40:47;8.93;;;2.65;;
28519;SDS011;15732;48.534;20.382;2023-04-01T00:43:16;9.77;;;2.95;;
28519;SDS011;15732;48.534;20.382;2023-04-01T00:45:45;23.95;;;2.53;;
28519;SDS011;15732;48.534;20.382;2023-04-01T00:48:15;25.17;;;2.97;;
28519;SDS011;15732;48.534;20.382;2023-04-01T00:50:49;9.68;;;2.38;;
28519;SDS011;15732;48.534;20.382;2023-04-01T00:53:24;4.18;;;1.88;;
28519;SDS011;15732;48.534;20.382;2023-04-01T00:55:57;5.43;;;1.88;;
28519;SDS011;15732;48.534;20.382;2023-04-01T00:58:34;6.60;;;1.65;;
28519;SDS011;15732;48.534;20.382;2023-04-01T01:01:06;7.65;;;2.90;;
28519;SDS011;15732;48.534;20.382;2023-04-01T01:03:38;7.47;;;2.35;;
28519;SDS011;15732;48.534;20.382;2023-04-01T01:08:55;5.30;;;2.42;;
28519;SDS011;15732;48.534;20.382;2023-04-01T01:12:25;8.35;;;3.53;;
28519;SDS011;15732;48.534;20.382;2023-04-01T01:15:05;8.32;;;3.78;;
28519;SDS011;15732;48.534;20.382;2023-04-01T01:29:15;13.18;;;3.60;;
28519;SDS011;15732;48.534;20.382;2023-04-01T01:37:09;11.27;;;4.32;;
28519;SDS011;15732;48.534;20.382;2023-04-01T01:39:41;13.13;;;5.65;;
28519;SDS011;15732;48.534;20.382;2023-04-01T01:42:16;11.35;;;5.03;;
28519;SDS011;15732;48.534;20.382;2023-04-01T01:44:45;5.85;;;3.25;;
28519;SDS011;15732;48.534;20.382;2023-04-01T01:47:15;8.68;;;3.55;;
28519;SDS011;15732;48.534;20.382;2023-04-01T01:49:45;10.13;;;3.63;;
28519;SDS011;15732;48.534;20.382;2023-04-01T01:52:16;8.75;;;3.30;;
28519;SDS011;15732;48.534;20.382;2023-04-01T01:54:47;4.65;;;2.05;;
28519;SDS011;15732;48.534;20.382;2023-04-01T01:57:23;4.53;;;2.13;;
28519;SDS011;15732;48.534;20.382;2023-04-01T02:00:10;4.18;;;1.70;;
28519;SDS011;15732;48.534;20.382;2023-04-01T02:02:44;4.90;;;2.28;;
28519;SDS011;15732;48.534;20.382;2023-04-01T02:05:21;4.05;;;1.33;;
28519;SDS011;15732;48.534;20.382;2023-04-01T02:08:01;2.83;;;1.63;;
28519;SDS011;15732;48.534;20.382;2023-04-01T02:10:35;6.15;;;2.20;;
28519;SDS011;15732;48.534;20.382;2023-04-01T02:13:08;5.70;;;2.45;;
28519;SDS011;15732;48.534;20.382;2023-04-01T02:15:46;7.10;;;1.77;;
28519;SDS011;15732;48.534;20.382;2023-04-01T02:18:19;6.25;;;1.77;;
28519;SDS011;15732;48.534;20.382;2023-04-01T02:20:47;3.58;;;1.63;;
28519;SDS011;15732;48.534;20.382;2023-04-01T02:23:16;7.78;;;1.60;;
28519;SDS011;15732;48.534;20.382;2023-04-01T02:25:44;2.42;;;1.40;;
28519;SDS011;15732;48.534;20.382;2023-04-01T02:28:12;5.15;;;2.83;;
28519;SDS011;15732;48.534;20.382;2023-04-01T02:30:42;4.93;;;1.98;;
28519;SDS011;15732;48.534;20.382;2023-04-01T02:33:14;3.42;;;1.77;;
28519;SDS011;15732;48.534;20.382;2023-04-01T02:35:46;4.35;;;1.92;;
28519;SDS011;15732;48.534;20.382;2023-04-01T02:38:13;4.63;;;1.83;;
28519;SDS011;15732;48.534;20.382;2023-04-01T02:40:51;5.28;;;2.03;;
28519;SDS011;15732;48.534;20.382;2023-04-01T02:43:22;2.90;;;1.73;;
28519;SDS011;15732;48.534;20.382;2023-04-01T02:45:54;4.70;;;2.33;;
28519;SDS011;15732;48.534;20.382;2023-04-01T02:48:21;2.58;;;1.10;;
28519;SDS011;15732;48.534;20.382;2023-04-01T02:50:48;4.68;;;2.20;;
28519;SDS011;15732;48.534;20.382;2023-04-01T02:53:15;4.60;;;2.47;;
28519;SDS011;15732;48.534;20.382;2023-04-01T02:55:47;10.45;;;4.85;;
28519;SDS011;15732;48.534;20.382;2023-04-01T02:58:16;23.05;;;5.55;;
28519;SDS011;15732;48.534;20.382;2023-04-01T03:00:43;14.73;;;4.72;;
28519;SDS011;15732;48.534;20.382;2023-04-01T03:03:15;7.50;;;3.47;;
28519;SDS011;15732;48.534;20.382;2023-04-01T03:05:42;8.10;;;4.35;;
28519;SDS011;15732;48.534;20.382;2023-04-01T03:08:14;10.23;;;3.13;;
28519;SDS011;15732;48.534;20.382;2023-04-01T03:10:45;4.20;;;2.55;;
28519;SDS011;15732;48.534;20.382;2023-04-01T03:13:13;6.57;;;2.45;;
28519;SDS011;15732;48.534;20.382;2023-04-01T03:15:40;7.55;;;3.30;;
28519;SDS011;15732;48.534;20.382;2023-04-01T03:18:11;5.85;;;2.85;;
28519;SDS011;15732;48.534;20.382;2023-04-01T03:20:38;6.78;;;3.05;;
28519;SDS011;15732;48.534;20.382;2023-04-01T03:23:07;7.75;;;2.25;;
28519;SDS011;15732;48.534;20.382;2023-04-01T03:25:38;2.78;;;1.25;;
28519;SDS011;15732;48.534;20.382;2023-04-01T03:28:06;2.72;;;1.17;;
28519;SDS011;15732;48.534;20.382;2023-04-01T03:30:33;5.68;;;1.50;;
28519;SDS011;15732;48.534;20.382;2023-04-01T03:33:01;2.95;;;1.65;;
28519;SDS011;15732;48.534;20.382;2023-04-01T03:35:32;1.80;;;0.95;;
28519;SDS011;15732;48.534;20.382;2023-04-01T03:38:04;4.38;;;1.85;;
28519;SDS011;15732;48.534;20.382;2023-04-01T03:40:31;3.88;;;1.60;;
28519;SDS011;15732;48.534;20.382;2023-04-01T03:43:05;10.85;;;3.28;;
28519;SDS011;15732;48.534;20.382;2023-04-01T03:45:34;6.07;;;3.15;;
28519;SDS011;15732;48.534;20.382;2023-04-01T03:48:02;15.33;;;3.47;;
28519;SDS011;15732;48.534;20.382;2023-04-01T03:50:30;5.32;;;1.65;;
28519;SDS011;15732;48.534;20.382;2023-04-01T03:52:57;5.22;;;1.83;;
28519;SDS011;15732;48.534;20.382;2023-04-01T03:55:28;5.85;;;2.22;;
28519;SDS011;15732;48.534;20.382;2023-04-01T03:57:56;7.18;;;2.80;;
28519;SDS011;15732;48.534;20.382;2023-04-01T04:00:23;6.35;;;2.67;;
28519;SDS011;15732;48.534;20.382;2023-04-01T04:02:54;5.90;;;2.80;;
28519;SDS011;15732;48.534;20.382;2023-04-01T04:05:22;5.15;;;1.95;;
28519;SDS011;15732;48.534;20.382;2023-04-01T04:07:51;4.60;;;1.85;;
28519;SDS011;15732;48.534;20.382;2023-04-01T04:10:18;5.15;;;2.13;;
28519;SDS011;15732;48.534;20.382;2023-04-01T04:12:45;4.32;;;1.98;;
28519;SDS011;15732;48.534;20.382;2023-04-01T04:15:17;3.45;;;1.80;;
28519;SDS011;15732;48.534;20.382;2023-04-01T04:17:47;3.60;;;1.60;;
28519;SDS011;15732;48.534;20.382;2023-04-01T04:20:19;6.50;;;2.40;;
28519;SDS011;15732;48.534;20.382;2023-04-01T04:22:46;4.72;;;2.03;;
28519;SDS011;15732;48.534;20.382;2023-04-01T04:25:18;6.82;;;3.15;;
28519;SDS011;15732;48.534;20.382;2023-04-01T04:27:45;9.45;;;5.63;;
28519;SDS011;15732;48.534;20.382;2023-04-01T04:30:17;11.73;;;4.15;;
28519;SDS011;15732;48.534;20.382;2023-04-01T04:32:45;7.68;;;2.92;;
28519;SDS011;15732;48.534;20.382;2023-04-01T04:35:13;6.75;;;3.45;;
28519;SDS011;15732;48.534;20.382;2023-04-01T04:37:40;6.28;;;2.47;;
28519;SDS011;15732;48.534;20.382;2023-04-01T04:40:07;9.52;;;4.05;;
28519;SDS011;15732;48.534;20.382;2023-04-01T04:42:36;8.73;;;4.07;;
28519;SDS011;15732;48.534;20.382;2023-04-01T04:45:03;7.85;;;3.83;;
28519;SDS011;15732;48.534;20.382;2023-04-01T04:47:31;10.25;;;4.43;;
28519;SDS011;15732;48.534;20.382;2023-04-01T04:49:59;10.73;;;4.18;;
28519;SDS011;15732;48.534;20.382;2023-04-01T04:52:26;14.55;;;5.80;;
28519;SDS011;15732;48.534;20.382;2023-04-01T04:54:58;19.70;;;7.00;;
28519;SDS011;15732;48.534;20.382;2023-04-01T04:57:25;15.68;;;6.10;;
28519;SDS011;15732;48.534;20.382;2023-04-01T04:59:52;9.23;;;4.45;;
28519;SDS011;15732;48.534;20.382;2023-04-01T05:02:24;18.75;;;6.13;;
28519;SDS011;15732;48.534;20.382;2023-04-01T05:04:55;10.23;;;4.55;;
28519;SDS011;15732;48.534;20.382;2023-04-01T05:07:26;16.80;;;6.20;;
28519;SDS011;15732;48.534;20.382;2023-04-01T05:09:53;7.93;;;3.95;;
28519;SDS011;15732;48.534;20.382;2023-04-01T05:12:24;9.23;;;4.00;;
28519;SDS011;15732;48.534;20.382;2023-04-01T05:14:55;8.57;;;2.70;;
28519;SDS011;15732;48.534;20.382;2023-04-01T05:17:22;5.00;;;2.50;;
28519;SDS011;15732;48.534;20.382;2023-04-01T05:19:49;9.95;;;3.92;;
28519;SDS011;15732;48.534;20.382;2023-04-01T05:22:17;10.35;;;4.82;;
28519;SDS011;15732;48.534;20.382;2023-04-01T05:24:48;8.73;;;4.90;;
28519;SDS011;15732;48.534;20.382;2023-04-01T05:27:16;10.02;;;3.95;;
28519;SDS011;15732;48.534;20.382;2023-04-01T05:29:43;7.45;;;3.78;;
28519;SDS011;15732;48.534;20.382;2023-04-01T05:32:11;8.40;;;3.55;;
28519;SDS011;15732;48.534;20.382;2023-04-01T05:34:41;8.45;;;3.22;;
28519;SDS011;15732;48.534;20.382;2023-04-01T05:37:09;5.07;;;2.23;;
28519;SDS011;15732;48.534;20.382;2023-04-01T05:39:37;7.22;;;2.88;;
28519;SDS011;15732;48.534;20.382;2023-04-01T05:42:07;7.55;;;1.42;;
28519;SDS011;15732;48.534;20.382;2023-04-01T05:44:34;3.20;;;1.48;;
28519;SDS011;15732;48.534;20.382;2023-04-01T05:47:02;5.03;;;3.05;;
28519;SDS011;15732;48.534;20.382;2023-04-01T05:49:31;14.07;;;5.55;;
28519;SDS011;15732;48.534;20.382;2023-04-01T05:51:58;13.65;;;5.40;;
28519;SDS011;15732;48.534;20.382;2023-04-01T05:54:26;9.63;;;5.38;;
28519;SDS011;15732;48.534;20.382;2023-04-01T05:56:58;18.25;;;7.05;;
28519;SDS011;15732;48.534;20.382;2023-04-01T05:59:29;14.73;;;5.32;;
28519;SDS011;15732;48.534;20.382;2023-04-01T06:02:03;9.75;;;4.07;;
28519;SDS011;15732;48.534;20.382;2023-04-01T06:04:32;10.15;;;5.05;;
28519;SDS011;15732;48.534;20.382;2023-04-01T06:07:11;13.90;;;4.70;;
28519;SDS011;15732;48.534;20.382;2023-04-01T06:09:45;8.70;;;4.63;;
28519;SDS011;15732;48.534;20.382;2023-04-01T06:29:41;8.40;;;3.88;;
28519;SDS011;15732;48.534;20.382;2023-04-01T06:35:20;8.45;;;3.95;;
28519;SDS011;15732;48.534;20.382;2023-04-01T06:45:56;7.05;;;2.85;;
28519;SDS011;15732;48.534;20.382;2023-04-01T06:49:07;3.90;;;2.05;;
28519;SDS011;15732;48.534;20.382;2023-04-01T06:52:02;6.10;;;2.78;;
28519;SDS011;15732;48.534;20.382;2023-04-01T06:55:01;7.05;;;2.22;;
28519;SDS011;15732;48.534;20.382;2023-04-01T06:57:49;6.68;;;2.75;;
28519;SDS011;15732;48.534;20.382;2023-04-01T07:05:44;5.60;;;1.88;;
28519;SDS011;15732;48.534;20.382;2023-04-01T07:08:25;6.32;;;2.25;;
28519;SDS011;15732;48.534;20.382;2023-04-01T07:11:03;3.15;;;1.42;;
28519;SDS011;15732;48.534;20.382;2023-04-01T07:13:47;7.63;;;2.00;;
28519;SDS011;15732;48.534;20.382;2023-04-01T07:16:20;4.22;;;2.00;;
28519;SDS011;15732;48.534;20.382;2023-04-01T07:19:01;4.33;;;1.67;;
28519;SDS011;15732;48.534;20.382;2023-04-01T07:24:17;2.47;;;1.20;;
28519;SDS011;15732;48.534;20.382;2023-04-01T07:26:56;2.60;;;1.10;;
28519;SDS011;15732;48.534;20.382;2023-04-01T07:29:23;1.83;;;1.03;;
28519;SDS011;15732;48.534;20.382;2023-04-01T07:34:32;4.22;;;1.50;;
28519;SDS011;15732;48.534;20.382;2023-04-01T07:48:02;2.72;;;1.33;;
28519;SDS011;15732;48.534;20.382;2023-04-01T07:50:55;2.45;;;1.10;;
28519;SDS011;15732;48.534;20.382;2023-04-01T07:53:49;5.07;;;1.15;;
28519;SDS011;15732;48.534;20.382;2023-04-01T08:05:29;2.20;;;1.00;;
28519;SDS011;15732;48.534;20.382;2023-04-01T08:10:49;3.40;;;1.20;;
28519;SDS011;15732;48.534;20.382;2023-04-01T08:19:00;5.40;;;1.58;;
28519;SDS011;15732;48.534;20.382;2023-04-01T08:21:43;1.92;;;1.23;;
28519;SDS011;15732;48.534;20.382;2023-04-01T08:24:29;2.70;;;0.93;;
28519;SDS011;15732;48.534;20.382;2023-04-01T08:27:16;1.17;;;0.73;;
28519;SDS011;15732;48.534;20.382;2023-04-01T08:29:50;4.68;;;1.27;;
28519;SDS011;15732;48.534;20.382;2023-04-01T08:32:31;1.83;;;0.77;;
28519;SDS011;15732;48.534;20.382;2023-04-01T08:35:18;4.30;;;1.45;;
28519;SDS011;15732;48.534;20.382;2023-04-01T08:37:55;1.25;;;0.60;;
28519;SDS011;15732;48.534;20.382;2023-04-01T08:40:33;1.50;;;0.88;;
28519;SDS011;15732;48.534;20.382;2023-04-01T08:51:38;3.58;;;1.30;;
28519;SDS011;15732;48.534;20.382;2023-04-01T08:54:46;2.15;;;1.10;;
28519;SDS011;15732;48.534;20.382;2023-04-01T08:57:49;2.35;;;1.05;;
28519;SDS011;15732;48.534;20.382;2023-04-01T09:00:32;2.33;;;1.20;;
28519;SDS011;15732;48.534;20.382;2023-04-01T09:14:03;3.08;;;1.35;;
28519;SDS011;15732;48.534;20.382;2023-04-01T09:25:04;2.40;;;0.77;;
28519;SDS011;15732;48.534;20.382;2023-04-01T09:28:33;1.67;;;0.90;;
28519;SDS011;15732;48.534;20.382;2023-04-01T09:36:45;1.63;;;0.93;;
28519;SDS011;15732;48.534;20.382;2023-04-01T09:42:21;1.75;;;0.90;;
28519;SDS011;15732;48.534;20.382;2023-04-01T09:45:09;1.65;;;0.80;;
28519;SDS011;15732;48.534;20.382;2023-04-01T09:50:55;1.27;;;0.63;;
28519;SDS011;15732;48.534;20.382;2023-04-01T10:01:57;0.70;;;0.40;;
28519;SDS011;15732;48.534;20.382;2023-04-01T10:23:50;1.98;;;0.60;;
28519;SDS011;15732;48.534;20.382;2023-04-01T10:48:33;0.38;;;0.30;;
28519;SDS011;15732;48.534;20.382;2023-04-01T10:54:02;1.27;;;0.40;;
28519;SDS011;15732;48.534;20.382;2023-04-01T11:19:07;0.68;;;0.38;;
28519;SDS011;15732;48.534;20.382;2023-04-01T11:40:36;0.20;;;0.20;;
28519;SDS011;15732;48.534;20.382;2023-04-01T11:45:44;0.70;;;0.32;;
28519;SDS011;15732;48.534;20.382;2023-04-01T11:54:46;0.65;;;0.40;;
28519;SDS011;15732;48.534;20.382;2023-04-01T12:03:29;0.90;;;0.52;;
28519;SDS011;15732;48.534;20.382;2023-04-01T12:11:35;0.30;;;0.30;;
28519;SDS011;15732;48.534;20.382;2023-04-01T12:14:22;2.17;;;0.50;;
28519;SDS011;15732;48.534;20.382;2023-04-01T12:22:49;4.72;;;0.85;;
28519;SDS011;15732;48.534;20.382;2023-04-01T12:33:52;1.55;;;0.65;;
28519;SDS011;15732;48.534;20.382;2023-04-01T12:36:45;3.20;;;0.73;;
28519;SDS011;15732;48.534;20.382;2023-04-01T12:39:48;0.60;;;0.32;;
28519;SDS011;15732;48.534;20.382;2023-04-01T12:53:36;0.67;;;0.40;;
28519;SDS011;15732;48.534;20.382;2023-04-01T12:56:14;0.40;;;0.20;;
28519;SDS011;15732;48.534;20.382;2023-04-01T13:07:21;0.73;;;0.47;;
28519;SDS011;15732;48.534;20.382;2023-04-01T13:21:24;0.47;;;0.38;;
28519;SDS011;15732;48.534;20.382;2023-04-01T13:27:12;0.25;;;0.20;;
28519;SDS011;15732;48.534;20.382;2023-04-01T13:37:58;5.35;;;2.13;;
28519;SDS011;15732;48.534;20.382;2023-04-01T13:54:07;8.93;;;2.20;;
28519;SDS011;15732;48.534;20.382;2023-04-01T14:05:28;0.32;;;0.28;;
28519;SDS011;15732;48.534;20.382;2023-04-01T14:11:39;4.32;;;0.93;;
28519;SDS011;15732;48.534;20.382;2023-04-01T14:14:36;1.00;;;0.60;;
28519;SDS011;15732;48.534;20.382;2023-04-01T14:17:27;2.70;;;0.80;;
28519;SDS011;15732;48.534;20.382;2023-04-01T14:33:21;0.98;;;0.60;;
28519;SDS011;15732;48.534;20.382;2023-04-01T14:39:23;1.20;;;0.60;;
28519;SDS011;15732;48.534;20.382;2023-04-01T14:50:51;7.00;;;3.03;;
28519;SDS011;15732;48.534;20.382;2023-04-01T14:53:36;6.22;;;1.60;;
28519;SDS011;15732;48.534;20.382;2023-04-01T14:56:14;0.45;;;0.38;;
28519;SDS011;15732;48.534;20.382;2023-04-01T14:59:09;2.40;;;0.43;;
28519;SDS011;15732;48.534;20.382;2023-04-01T15:01:43;2.08;;;0.88;;
28519;SDS011;15732;48.534;20.382;2023-04-01T15:04:36;2.40;;;0.68;;
28519;SDS011;15732;48.534;20.382;2023-04-01T15:07:42;1.80;;;0.77;;
28519;SDS011;15732;48.534;20.382;2023-04-01T15:32:44;1.15;;;0.47;;
28519;SDS011;15732;48.534;20.382;2023-04-01T15:45:58;3.10;;;1.43;;
28519;SDS011;15732;48.534;20.382;2023-04-01T16:06:56;1.60;;;0.90;;
28519;SDS011;15732;48.534;20.382;2023-04-01T16:09:48;0.98;;;0.50;;
28519;SDS011;15732;48.534;20.382;2023-04-01T16:12:58;1.80;;;0.70;;
28519;SDS011;15732;48.534;20.382;2023-04-01T16:15:44;2.33;;;1.05;;
28519;SDS011;15732;48.534;20.382;2023-04-01T16:24:14;2.33;;;1.08;;
28519;SDS011;15732;48.534;20.382;2023-04-01T16:26:53;2.85;;;0.98;;
28519;SDS011;15732;48.534;20.382;2023-04-01T16:29:42;3.08;;;0.82;;
28519;SDS011;15732;48.534;20.382;2023-04-01T16:37:50;1.75;;;0.93;;
28519;SDS011;15732;48.534;20.382;2023-04-01T16:43:44;3.42;;;0.98;;
28519;SDS011;15732;48.534;20.382;2023-04-01T16:46:39;2.88;;;1.05;;
28519;SDS011;15732;48.534;20.382;2023-04-01T17:03:19;2.35;;;0.70;;
28519;SDS011;15732;48.534;20.382;2023-04-01T17:11:27;5.43;;;0.93;;
28519;SDS011;15732;48.534;20.382;2023-04-01T17:25:00;1.95;;;0.75;;
28519;SDS011;15732;48.534;20.382;2023-04-01T17:30:39;1.42;;;0.55;;
28519;SDS011;15732;48.534;20.382;2023-04-01T17:33:34;1.13;;;0.73;;
28519;SDS011;15732;48.534;20.382;2023-04-01T17:47:44;2.75;;;1.30;;
28519;SDS011;15732;48.534;20.382;2023-04-01T17:50:43;2.08;;;1.13;;
28519;SDS011;15732;48.534;20.382;2023-04-01T17:53:14;1.88;;;0.82;;
28519;SDS011;15732;48.534;20.382;2023-04-01T18:01:18;2.67;;;1.38;;
28519;SDS011;15732;48.534;20.382;2023-04-01T18:11:59;1.52;;;0.63;;
28519;SDS011;15732;48.534;20.382;2023-04-01T18:15:02;1.90;;;0.80;;
28519;SDS011;15732;48.534;20.382;2023-04-01T18:25:49;3.58;;;1.20;;
28519;SDS011;15732;48.534;20.382;2023-04-01T18:28:39;3.50;;;1.45;;
28519;SDS011;15732;48.534;20.382;2023-04-01T18:31:17;2.70;;;1.40;;
28519;SDS011;15732;48.534;20.382;2023-04-01T18:33:48;2.70;;;1.17;;
28519;SDS011;15732;48.534;20.382;2023-04-01T18:36:50;3.58;;;1.40;;
28519;SDS011;15732;48.534;20.382;2023-04-01T18:42:19;6.75;;;1.30;;
28519;SDS011;15732;48.534;20.382;2023-04-01T18:45:17;3.45;;;1.10;;
28519;SDS011;15732;48.534;20.382;2023-04-01T18:50:52;2.45;;;0.73;;
28519;SDS011;15732;48.534;20.382;2023-04-01T18:53:34;2.85;;;1.58;;
28519;SDS011;15732;48.534;20.382;2023-04-01T18:56:10;1.98;;;0.93;;
28519;SDS011;15732;48.534;20.382;2023-04-01T18:59:23;2.63;;;1.10;;
28519;SDS011;15732;48.534;20.382;2023-04-01T19:06:58;3.85;;;1.83;;
28519;SDS011;15732;48.534;20.382;2023-04-01T19:09:31;4.05;;;1.73;;
28519;SDS011;15732;48.534;20.382;2023-04-01T19:12:23;5.55;;;1.83;;
28519;SDS011;15732;48.534;20.382;2023-04-01T19:15:12;4.43;;;1.80;;
28519;SDS011;15732;48.534;20.382;2023-04-01T19:17:54;3.13;;;1.45;;
28519;SDS011;15732;48.534;20.382;2023-04-01T19:20:41;1.73;;;0.68;;
28519;SDS011;15732;48.534;20.382;2023-04-01T19:26:20;3.70;;;1.15;;
28519;SDS011;15732;48.534;20.382;2023-04-01T19:31:43;5.28;;;2.63;;
28519;SDS011;15732;48.534;20.382;2023-04-01T19:37:22;2.50;;;1.20;;
28519;SDS011;15732;48.534;20.382;2023-04-01T19:45:26;10.80;;;3.30;;
28519;SDS011;15732;48.534;20.382;2023-04-01T19:51:04;6.90;;;2.30;;
28519;SDS011;15732;48.534;20.382;2023-04-01T19:53:50;6.07;;;2.58;;
28519;SDS011;15732;48.534;20.382;2023-04-01T19:56:21;24.88;;;2.53;;
28519;SDS011;15732;48.534;20.382;2023-04-01T20:04:41;19.67;;;7.22;;
28519;SDS011;15732;48.534;20.382;2023-04-01T20:07:16;14.90;;;4.78;;
28519;SDS011;15732;48.534;20.382;2023-04-01T20:15:47;19.10;;;7.78;;
28519;SDS011;15732;48.534;20.382;2023-04-01T20:18:34;20.35;;;6.50;;
28519;SDS011;15732;48.534;20.382;2023-04-01T20:24:04;12.60;;;4.03;;
28519;SDS011;15732;48.534;20.382;2023-04-01T20:26:35;7.40;;;2.58;;
28519;SDS011;15732;48.534;20.382;2023-04-01T20:51:06;36.75;;;12.80;;
28519;SDS011;15732;48.534;20.382;2023-04-01T20:54:01;38.20;;;13.40;;
28519;SDS011;15732;48.534;20.382;2023-04-01T20:59:41;35.17;;;16.63;;
28519;SDS011;15732;48.534;20.382;2023-04-01T21:10:27;31.10;;;12.18;;
28519;SDS011;15732;48.534;20.382;2023-04-01T21:27:20;14.30;;;5.13;;
28519;SDS011;15732;48.534;20.382;2023-04-01T22:03:56;5.43;;;2.53;;
28519;SDS011;15732;48.534;20.382;2023-04-01T22:09:36;11.10;;;2.80;;
28519;SDS011;15732;48.534;20.382;2023-04-01T22:12:12;10.13;;;3.45;;
28519;SDS011;15732;48.534;20.382;2023-04-01T22:23:48;7.38;;;3.42;;
28519;SDS011;15732;48.534;20.382;2023-04-01T22:26:40;9.90;;;2.92;;
28519;SDS011;15732;48.534;20.382;2023-04-01T22:29:21;10.45;;;3.22;;
28519;SDS011;15732;48.534;20.382;2023-04-01T22:40:51;6.65;;;3.90;;
28519;SDS011;15732;48.534;20.382;2023-04-01T22:43:39;8.15;;;3.33;;
28519;SDS011;15732;48.534;20.382;2023-04-01T22:49:21;5.70;;;2.72;;
28519;SDS011;15732;48.534;20.382;2023-04-01T22:52:27;7.97;;;2.83;;
28519;SDS011;15732;48.534;20.382;2023-04-01T22:55:10;5.10;;;1.90;;
28519;SDS011;15732;48.534;20.382;2023-04-01T23:05:53;7.10;;;2.58;;
28519;SDS011;15732;48.534;20.382;2023-04-01T23:14:01;6.43;;;2.78;;
28519;SDS011;15732;48.534;20.382;2023-04-01T23:16:49;8.63;;;2.85;;
28519;SDS011;15732;48.534;20.382;2023-04-01T23:27:59;6.43;;;2.67;;
28519;SDS011;15732;48.534;20.382;2023-04-01T23:36:11;11.55;;;3.65;;
28519;SDS011;15732;48.534;20.382;2023-04-01T23:38:41;7.15;;;2.88;;
28519;SDS011;15732;48.534;20.382;2023-04-01T23:41:19;6.72;;;3.00;;
28519;SDS011;15732;48.534;20.382;2023-04-01T23:44:16;10.13;;;2.45;;
28519;SDS011;15732;48.534;20.382;2023-04-01T23:46:47;5.68;;;2.35;;
28519;SDS011;15732;48.534;20.382;2023-04-01T23:49:24;7.50;;;2.13;;
28519;SDS011;15732;48.534;20.382;2023-04-01T23:51:58;5.20;;;2.53;;
28519;SDS011;15732;48.534;20.382;2023-04-01T23:57:02;4.70;;;2.53;;
28519;SDS011;15732;48.534;20.382;2023-04-01T23:59:37;11.57;;;2.92;;
